Time;durP1;ratioP1;P1;durP2;ratioP2;P2;SDS_P1;SDS_P2;PMS_P1;PMS_P2;Temp;Humidity;BMP_temperature;BMP_pressure;BME280_temperature;BME280_humidity;BME280_pressure;Samples;Min_cycle;Max_cycle;Signal;HPM_P1;HPM_P2
2023/05/14 00:02:15;;;;;;;10.60;9.60;;;;;;;11.45;100.00;96249.81;5031326;28;101939;-61
2023/05/14 00:04:42;;;;;;;10.43;9.43;;;;;;;11.44;100.00;96248.22;5032897;28;102361;-62
2023/05/14 00:07:11;;;;;;;11.00;9.90;;;;;;;11.47;100.00;96245.03;5031287;28;102622;-62
2023/05/14 00:09:38;;;;;;;11.30;10.23;;;;;;;11.49;100.00;96235.72;5012469;28;102501;-61
2023/05/14 00:12:05;;;;;;;12.80;10.63;;;;;;;11.47;100.00;96237.03;4992347;28;102310;-62
2023/05/14 00:14:34;;;;;;;11.37;10.27;;;;;;;11.45;100.00;96236.50;4995186;28;105980;-62
2023/05/14 00:17:01;;;;;;;11.77;10.47;;;;;;;11.46;100.00;96232.78;5004839;28;102383;-61
2023/05/14 00:19:28;;;;;;;11.87;10.67;;;;;;;11.46;100.00;96228.22;5010910;28;102519;-62
2023/05/14 00:21:55;;;;;;;10.70;9.70;;;;;;;11.53;100.00;96228.81;4993075;28;101865;-61
2023/05/14 00:24:44;;;;;;;11.33;10.23;;;;;;;11.47;100.00;96223.72;4990152;28;103594;-62
2023/05/14 00:27:11;;;;;;;11.03;9.93;;;;;;;11.48;100.00;96220.81;4999091;28;103853;-61
2023/05/14 00:29:40;;;;;;;12.07;10.27;;;;;;;11.53;100.00;96225.34;5014045;28;101950;-62
2023/05/14 00:32:07;;;;;;;11.33;10.23;;;;;;;11.58;100.00;96220.84;5031340;28;102146;-61
2023/05/14 00:34:46;;;;;;;11.40;10.30;;;;;;;11.59;100.00;96217.16;5013342;28;105526;-61
2023/05/14 00:37:13;;;;;;;10.47;9.53;;;;;;;11.56;100.00;96217.63;5016495;28;102073;-62
2023/05/14 00:39:40;;;;;;;12.23;11.07;;;;;;;11.50;100.00;96217.88;4998536;28;105514;-61
2023/05/14 00:42:08;;;;;;;10.07;9.17;;;;;;;11.53;100.00;96215.50;4992274;28;102352;-61
2023/05/14 00:44:54;;;;;;;11.00;10.00;;;;;;;11.54;100.00;96224.28;4995263;28;104968;-61
2023/05/14 00:47:21;;;;;;;12.20;11.00;;;;;;;11.47;100.00;96219.22;5030882;28;102515;-61
2023/05/14 00:49:48;;;;;;;11.57;10.43;;;;;;;11.51;100.00;96220.28;4996717;28;102091;-61
2023/05/14 00:52:16;;;;;;;10.40;9.40;;;;;;;11.54;100.00;96218.94;4988939;28;105408;-61
2023/05/14 00:54:44;;;;;;;11.10;10.00;;;;;;;11.56;100.00;96216.84;4990476;28;105175;-61
2023/05/14 00:57:12;;;;;;;10.47;9.47;;;;;;;11.55;100.00;96210.69;4990054;28;102192;-61
2023/05/14 00:59:41;;;;;;;11.17;10.17;;;;;;;11.55;100.00;96218.69;5007980;28;105859;-62
2023/05/14 01:02:08;;;;;;;11.70;10.50;;;;;;;11.52;100.00;96215.75;5013701;28;101872;-61
2023/05/14 01:04:36;;;;;;;11.83;10.63;;;;;;;11.55;100.00;96210.69;5014841;28;104999;-61
2023/05/14 01:07:12;;;;;;;11.90;10.80;;;;;;;11.55;100.00;96216.03;5012041;28;105525;-62
2023/05/14 01:09:44;;;;;;;11.40;10.30;;;;;;;11.54;100.00;96213.63;5000229;28;102158;-62
2023/05/14 01:12:19;;;;;;;11.73;10.63;;;;;;;11.55;100.00;96209.91;4993641;28;105363;-62
2023/05/14 01:15:19;;;;;;;12.77;11.57;;;;;;;11.46;100.00;96212.25;5003374;28;105696;-61
2023/05/14 01:17:50;;;;;;;11.33;10.27;;;;;;;11.50;100.00;96213.34;5031983;28;102024;-61
2023/05/14 01:20:18;;;;;;;11.27;10.13;;;;;;;11.51;100.00;96206.94;4998556;28;102365;-62
2023/05/14 01:22:47;;;;;;;12.03;10.97;;;;;;;11.52;100.00;96202.44;4994959;28;102515;-61
2023/05/14 01:25:18;;;;;;;12.13;10.93;;;;;;;11.53;100.00;96198.72;4988435;28;104909;-62
2023/05/14 01:27:53;;;;;;;11.27;10.20;;;;;;;11.53;100.00;96206.69;4989146;28;105383;-61
2023/05/14 01:30:26;;;;;;;14.00;11.20;;;;;;;11.52;100.00;96199.78;5008849;28;101773;-62
2023/05/14 01:32:58;;;;;;;12.00;10.90;;;;;;;11.49;100.00;96201.09;5002709;28;105680;-61
2023/05/14 01:35:29;;;;;;;13.53;12.20;;;;;;;11.47;100.00;96194.44;5006414;28;105325;-61
2023/05/14 01:38:00;;;;;;;12.40;11.20;;;;;;;11.47;100.00;96192.56;5008358;28;101805;-60
2023/05/14 01:40:28;;;;;;;12.30;10.93;;;;;;;11.47;100.00;96189.09;4990811;28;102760;-61
2023/05/14 01:42:55;;;;;;;13.07;11.80;;;;;;;11.49;100.00;96186.97;4988888;28;105378;-62
2023/05/14 01:45:22;;;;;;;13.27;11.73;;;;;;;11.48;100.00;96182.72;5011845;28;101830;-62
2023/05/14 01:47:50;;;;;;;13.27;11.97;;;;;;;11.47;100.00;96186.44;5012961;28;105507;-61
2023/05/14 01:50:17;;;;;;;12.60;11.30;;;;;;;11.49;100.00;96184.31;4992353;28;102002;-61
2023/05/14 01:52:44;;;;;;;12.73;11.50;;;;;;;11.50;100.00;96188.59;5002635;28;105506;-62
2023/05/14 01:55:28;;;;;;;13.40;12.00;;;;;;;11.53;100.00;96188.06;4998513;28;104484;-61
2023/05/14 01:57:56;;;;;;;15.57;13.77;;;;;;;11.46;100.00;96184.84;4989876;28;101902;-62
2023/05/14 02:00:25;;;;;;;15.40;13.00;;;;;;;11.43;100.00;96185.34;4989137;28;105291;-61
2023/05/14 02:02:56;;;;;;;14.23;12.57;;;;;;;11.42;100.00;96184.56;5012845;28;102637;-61
2023/05/14 02:05:23;;;;;;;14.33;12.77;;;;;;;11.40;100.00;96193.88;4998536;28;101962;-61
2023/05/14 02:07:50;;;;;;;15.53;13.87;;;;;;;11.32;100.00;96189.84;4992642;28;105399;-61
2023/05/14 02:10:17;;;;;;;14.60;13.17;;;;;;;11.37;100.00;96186.41;4991590;28;102267;-61
2023/05/14 02:12:51;;;;;;;15.70;12.77;;;;;;;11.35;100.00;96185.88;5004917;28;105182;-61
2023/05/14 02:15:20;;;;;;;14.37;12.50;;;;;;;11.36;100.00;96185.63;4994012;28;105963;-61
2023/05/14 02:17:49;;;;;;;13.73;12.33;;;;;;;11.35;100.00;96172.56;4990711;28;101916;-61
2023/05/14 02:20:16;;;;;;;13.30;11.80;;;;;;;11.35;100.00;96185.88;4990486;28;105128;-61
2023/05/14 02:22:44;;;;;;;14.27;11.43;;;;;;;11.35;100.00;96177.88;4990422;28;105668;-61
2023/05/14 02:25:14;;;;;;;13.17;11.33;;;;;;;11.29;100.00;96178.91;5004443;28;102489;-62
2023/05/14 02:27:41;;;;;;;15.10;12.17;;;;;;;11.20;100.00;96172.47;5016298;28;105194;-61
2023/05/14 02:30:11;;;;;;;13.53;11.20;;;;;;;11.22;100.00;96173.00;5030957;28;102083;-62
2023/05/14 02:32:38;;;;;;;12.23;10.57;;;;;;;11.25;100.00;96177.81;4992484;28;104960;-62
2023/05/14 02:35:12;;;;;;;14.73;11.20;;;;;;;11.30;100.00;96175.19;5006221;28;105088;-61
2023/05/14 02:37:39;;;;;;;12.37;10.73;;;;;;;11.29;100.00;96177.03;5015858;28;101848;-62
2023/05/14 02:40:08;;;;;;;13.60;11.10;;;;;;;11.28;100.00;96179.97;4999941;28;105092;-61
2023/05/14 02:42:34;;;;;;;13.37;10.93;;;;;;;11.28;100.00;96169.34;4990903;28;105464;-61
2023/05/14 02:45:01;;;;;;;11.93;10.37;;;;;;;11.28;100.00;96172.00;5007443;28;102038;-61
2023/05/14 02:47:30;;;;;;;14.90;11.23;;;;;;;11.28;100.00;96170.13;5016962;28;104822;-61
2023/05/14 02:49:57;;;;;;;12.27;9.90;;;;;;;11.28;100.00;96174.66;5004720;28;105320;-62
2023/05/14 02:52:24;;;;;;;13.23;11.17;;;;;;;11.30;100.00;96169.88;4994232;28;105219;-61
2023/05/14 02:54:56;;;;;;;12.70;10.87;;;;;;;11.29;100.00;96157.63;4993922;28;105161;-61
2023/05/14 02:57:23;;;;;;;12.80;10.47;;;;;;;11.19;100.00;96161.03;4992730;28;101981;-61
2023/05/14 02:59:50;;;;;;;13.30;11.27;;;;;;;11.16;100.00;96163.41;4994305;28;104933;-61
2023/05/14 03:02:17;;;;;;;12.47;10.63;;;;;;;11.17;100.00;96154.38;4990050;28;105440;-61
2023/05/14 03:05:05;;;;;;;17.00;12.97;;;;;;;11.19;100.00;96162.91;4991180;28;101897;-61
2023/05/14 03:07:33;;;;;;;16.40;12.63;;;;;;;11.09;100.00;96154.84;4990074;28;103569;-62
2023/05/14 03:10:00;;;;;;;14.77;11.80;;;;;;;11.03;100.00;96155.91;4990282;28;105910;-61
2023/05/14 03:12:27;;;;;;;16.40;12.23;;;;;;;11.07;100.00;96162.31;4994836;28;102181;-61
2023/05/14 03:15:00;;;;;;;14.30;12.17;;;;;;;11.11;100.00;96163.38;5007422;28;105567;-61
2023/05/14 03:17:29;;;;;;;13.37;11.77;;;;;;;11.17;100.00;96159.72;5013132;28;101774;-62
2023/05/14 03:19:56;;;;;;;14.07;11.50;;;;;;;11.22;100.00;96159.69;5033661;28;102332;-61
2023/05/14 03:22:25;;;;;;;14.70;12.87;;;;;;;11.29;100.00;96157.63;5015264;28;105502;-60
2023/05/14 03:25:11;;;;;;;15.87;13.27;;;;;;;11.32;100.00;96160.56;4996498;28;101883;-61
2023/05/14 03:27:38;;;;;;;15.17;12.70;;;;;;;11.35;100.00;96164.56;5002771;28;105930;-61
2023/05/14 03:30:07;;;;;;;17.13;12.63;;;;;;;11.33;100.00;96158.72;5015616;28;105230;-61
2023/05/14 03:32:34;;;;;;;15.07;12.50;;;;;;;11.32;100.00;96162.41;5001524;28;102151;-62
2023/05/14 03:35:14;;;;;;;15.50;13.30;;;;;;;11.34;100.00;96160.31;5011269;28;105051;-61
2023/05/14 03:37:44;;;;;;;13.70;12.20;;;;;;;11.33;100.00;96156.03;5014986;28;101858;-61
2023/05/14 03:40:11;;;;;;;16.23;12.57;;;;;;;11.32;100.00;96154.44;5014107;28;105648;-61
2023/05/14 03:42:38;;;;;;;15.73;13.17;;;;;;;11.27;100.00;96151.75;5012389;28;105925;-61
2023/05/14 03:45:09;;;;;;;14.43;12.80;;;;;;;11.22;100.00;96149.06;4994105;28;101955;-62
2023/05/14 03:47:36;;;;;;;14.13;12.70;;;;;;;11.13;100.00;96154.06;4989417;28;104660;-62
2023/05/14 03:50:06;;;;;;;14.63;13.03;;;;;;;11.20;100.00;96156.50;4989433;28;105028;-61
2023/05/14 03:52:32;;;;;;;14.73;12.47;;;;;;;11.19;100.00;96152.25;4989374;28;102503;-61
2023/05/14 03:55:08;;;;;;;16.13;12.70;;;;;;;11.20;100.00;96154.66;5006493;28;104796;-62
2023/05/14 03:57:36;;;;;;;15.67;13.73;;;;;;;11.21;100.00;96150.13;5014799;28;105084;-62
2023/05/14 04:00:03;;;;;;;15.17;12.70;;;;;;;11.26;100.00;96153.63;4998776;28;102264;-61
2023/05/14 04:02:43;;;;;;;15.67;12.97;;;;;;;11.25;100.00;96157.34;4986536;28;101982;-62
2023/05/14 04:06:06;;;;;;;15.60;13.00;;;;;;;11.27;100.00;96159.72;5009204;28;102482;-61
2023/05/14 04:08:35;;;;;;;14.93;11.93;;;;;;;11.30;100.00;96159.22;5011559;28;105054;-61
2023/05/14 04:11:03;;;;;;;15.70;13.23;;;;;;;11.34;100.00;96162.97;5011249;28;105427;-62
2023/05/14 04:13:37;;;;;;;15.27;13.23;;;;;;;11.35;100.00;96162.69;5002758;28;102287;-62
2023/05/14 04:16:04;;;;;;;16.30;13.80;;;;;;;11.34;100.00;96163.75;4988741;28;105339;-62
2023/05/14 04:18:34;;;;;;;16.50;13.83;;;;;;;11.29;100.00;96163.72;4993598;28;104623;-62
2023/05/14 04:21:00;;;;;;;15.27;13.17;;;;;;;11.23;100.00;96150.69;5011987;28;104918;-62
2023/05/14 04:23:27;;;;;;;17.03;14.47;;;;;;;11.23;100.00;96164.78;4997490;28;105249;-61
2023/05/14 04:25:54;;;;;;;17.40;13.37;;;;;;;11.24;100.00;96154.94;5011909;28;101808;-61
2023/05/14 04:28:22;;;;;;;16.43;13.77;;;;;;;11.25;100.00;96160.00;5011096;28;105253;-61
2023/05/14 04:30:49;;;;;;;17.00;14.20;;;;;;;11.31;100.00;96158.16;5011272;28;105186;-62
2023/05/14 04:33:16;;;;;;;19.00;13.30;;;;;;;11.36;100.00;96155.50;5004394;28;101849;-61
2023/05/14 04:35:44;;;;;;;15.07;13.17;;;;;;;11.24;100.00;96155.72;4988843;28;104835;-62
2023/05/14 04:38:12;;;;;;;15.87;13.03;;;;;;;11.18;100.00;96155.97;4988292;28;105558;-62
2023/05/14 04:40:40;;;;;;;14.17;11.93;;;;;;;11.05;100.00;96151.09;4993805;28;101901;-62
2023/05/14 04:43:07;;;;;;;14.97;12.47;;;;;;;11.03;100.00;96156.72;5007116;28;105513;-62
2023/05/14 04:45:35;;;;;;;12.53;10.87;;;;;;;11.00;100.00;96159.06;4988430;28;102225;-62
2023/05/14 04:48:02;;;;;;;11.53;10.33;;;;;;;10.98;100.00;96164.66;4988292;28;104788;-62
2023/05/14 04:50:29;;;;;;;12.13;10.43;;;;;;;11.01;100.00;96161.47;5000304;28;104994;-62
2023/05/14 04:52:56;;;;;;;11.33;10.17;;;;;;;11.09;100.00;96173.47;5010800;28;102089;-62
2023/05/14 04:55:23;;;;;;;11.73;10.60;;;;;;;11.10;100.00;96169.75;5010748;28;104786;-62
2023/05/14 04:57:50;;;;;;;11.13;10.03;;;;;;;11.12;100.00;96170.31;5010743;28;105571;-62
2023/05/14 05:00:18;;;;;;;11.53;10.17;;;;;;;11.17;100.00;96175.66;5011183;28;102413;-62
2023/05/14 05:02:46;;;;;;;11.27;9.97;;;;;;;11.20;100.00;96180.47;5013901;28;105954;-61
2023/05/14 05:05:19;;;;;;;10.43;9.33;;;;;;;11.09;100.00;96173.47;4988806;28;102046;-62
2023/05/14 05:07:46;;;;;;;10.27;9.27;;;;;;;11.08;100.00;96180.69;4989357;28;104867;-61
2023/05/14 05:10:13;;;;;;;9.90;8.90;;;;;;;11.07;100.00;96181.72;4990370;28;105169;-61
2023/05/14 05:12:41;;;;;;;9.63;8.73;;;;;;;11.01;100.00;96176.66;4989122;28;101879;-61
2023/05/14 05:15:10;;;;;;;10.27;9.20;;;;;;;11.08;100.00;96174.56;4989983;28;104856;-61
2023/05/14 05:17:37;;;;;;;12.97;9.07;;;;;;;11.04;100.00;96174.28;4992875;28;105895;-61
2023/05/14 05:20:08;;;;;;;11.47;10.37;;;;;;;11.02;100.00;96172.94;4990241;28;101945;-62
2023/05/14 05:22:36;;;;;;;16.10;13.70;;;;;;;10.95;100.00;96162.50;4972468;28;105084;-62
2023/05/14 05:25:21;;;;;;;19.40;15.20;;;;;;;10.96;100.00;96160.66;4994053;28;105321;-62
2023/05/14 05:27:48;;;;;;;18.20;15.77;;;;;;;11.02;100.00;96163.06;4987224;28;105247;-61
2023/05/14 05:30:15;;;;;;;22.67;17.03;;;;;;;11.04;100.00;96165.47;4987381;28;105329;-62
2023/05/14 05:32:42;;;;;;;24.67;19.03;;;;;;;11.15;100.00;96167.13;4990844;28;102053;-62
2023/05/14 05:35:11;;;;;;;21.90;18.33;;;;;;;11.22;100.00;96173.00;5010518;28;105648;-62
2023/05/14 05:37:38;;;;;;;23.70;19.17;;;;;;;11.20;100.00;96180.47;4994085;28;105174;-61
2023/05/14 05:40:05;;;;;;;23.37;18.53;;;;;;;11.27;100.00;96170.38;4987478;28;101841;-61
2023/05/14 05:42:32;;;;;;;25.27;20.40;;;;;;;11.27;100.00;96181.03;4987725;28;104997;-61
2023/05/14 05:45:40;;;;;;;21.47;19.13;;;;;;;11.34;100.00;96177.06;5009767;28;105510;-61
2023/05/14 05:48:07;;;;;;;25.50;17.83;;;;;;;11.41;100.00;96171.50;5014296;28;101822;-61
2023/05/14 05:50:35;;;;;;;21.93;19.10;;;;;;;11.34;100.00;96170.97;5000010;28;104322;-61
2023/05/14 05:53:02;;;;;;;24.93;20.00;;;;;;;11.33;100.00;96174.69;4988664;28;101994;-61
2023/05/14 05:55:29;;;;;;;25.87;19.23;;;;;;;11.36;100.00;96168.81;4987684;28;104933;-61
2023/05/14 05:57:56;;;;;;;25.37;19.80;;;;;;;11.42;100.00;96171.25;4987109;28;105309;-62
2023/05/14 06:00:23;;;;;;;30.67;22.93;;;;;;;11.53;100.00;96172.91;4995756;28;102112;-61
2023/05/14 06:02:52;;;;;;;31.03;23.20;;;;;;;11.59;100.00;96174.53;5010758;28;105058;-62
2023/05/14 06:05:30;;;;;;;30.47;22.83;;;;;;;11.53;100.00;96175.56;5009648;28;105127;-62
2023/05/14 06:07:59;;;;;;;32.13;24.03;;;;;;;11.62;100.00;96167.91;5029077;27;101855;-62
2023/05/14 06:10:26;;;;;;;29.13;22.40;;;;;;;11.68;100.00;96167.66;4995692;28;102880;-62
2023/05/14 06:12:53;;;;;;;30.63;23.40;;;;;;;11.68;100.00;96169.50;5003550;28;101921;-62
2023/05/14 06:15:36;;;;;;;32.60;24.07;;;;;;;11.67;100.00;96171.34;5013955;28;104388;-62
2023/05/14 06:18:03;;;;;;;31.80;23.63;;;;;;;11.63;100.00;96159.66;5013134;28;104989;-62
2023/05/14 06:20:30;;;;;;;32.33;23.30;;;;;;;11.50;100.00;96165.41;5013697;28;102013;-62
2023/05/14 06:22:58;;;;;;;32.80;23.67;;;;;;;11.53;100.00;96161.44;5000513;28;105297;-62
2023/05/14 06:25:25;;;;;;;26.50;21.27;;;;;;;11.45;100.00;96156.63;4993420;28;105721;-62
2023/05/14 06:27:52;;;;;;;27.63;20.23;;;;;;;11.55;100.00;96140.69;4993573;28;102030;-62
2023/05/14 06:30:18;;;;;;;26.83;20.17;;;;;;;11.68;100.00;96146.34;5000743;28;104897;-62
2023/05/14 06:32:45;;;;;;;23.10;18.20;;;;;;;11.71;100.00;96145.81;5012654;28;101965;-62
2023/05/14 06:35:29;;;;;;;22.23;17.73;;;;;;;11.67;100.00;96130.63;4997805;28;104781;-62
2023/05/14 06:37:55;;;;;;;18.37;16.00;;;;;;;11.74;100.00;96126.66;5013412;28;105714;-62
2023/05/14 06:40:24;;;;;;;21.77;17.30;;;;;;;11.98;100.00;96132.25;4997819;28;102263;-62
2023/05/14 06:42:50;;;;;;;17.73;15.60;;;;;;;12.09;100.00;96141.84;4990525;28;104945;-62
2023/05/14 06:45:17;;;;;;;17.30;15.47;;;;;;;12.08;100.00;96129.59;5003844;28;105229;-62
2023/05/14 06:47:44;;;;;;;16.70;15.00;;;;;;;12.28;100.00;96133.09;4994164;28;102209;-62
2023/05/14 06:50:11;;;;;;;16.93;14.97;;;;;;;12.23;100.00;96138.44;4994378;28;102310;-61
2023/05/14 06:52:38;;;;;;;16.00;14.30;;;;;;;12.27;100.00;96133.34;4992900;28;105947;-61
2023/05/14 06:55:07;;;;;;;16.93;15.03;;;;;;;12.13;100.00;96135.75;4990186;28;105091;-61
2023/05/14 06:57:35;;;;;;;16.67;14.87;;;;;;;11.97;100.00;96133.31;4989687;28;105393;-61
2023/05/14 07:00:02;;;;;;;16.97;15.07;;;;;;;11.84;100.00;96133.84;4991308;28;102312;-61
2023/05/14 07:02:29;;;;;;;15.97;14.27;;;;;;;11.90;100.00;96138.13;4990061;28;104984;-61
2023/05/14 07:05:07;;;;;;;16.13;14.53;;;;;;;11.93;100.00;96135.72;4989192;28;104032;-62
2023/05/14 07:07:34;;;;;;;15.13;13.53;;;;;;;12.03;100.00;96142.91;4990278;28;101974;-61
2023/05/14 07:10:01;;;;;;;13.87;12.47;;;;;;;12.09;100.00;96140.00;5013354;28;102633;-62
2023/05/14 07:12:28;;;;;;;16.43;14.03;;;;;;;12.18;100.00;96145.59;5004868;28;105363;-61
2023/05/14 07:15:07;;;;;;;15.70;13.57;;;;;;;12.13;100.00;96142.94;4993274;28;102058;-61
2023/05/14 07:17:34;;;;;;;14.80;13.27;;;;;;;12.19;100.00;96132.03;4989398;28;105175;-62
2023/05/14 07:20:01;;;;;;;14.40;12.93;;;;;;;12.29;100.00;96141.88;5003400;28;101902;-63
2023/05/14 07:22:28;;;;;;;14.63;13.13;;;;;;;12.21;100.00;96134.44;5028023;28;103043;-63
2023/05/14 07:25:08;;;;;;;15.10;12.27;;;;;;;12.39;100.00;96133.88;5030442;28;102637;-63
2023/05/14 07:27:34;;;;;;;13.97;12.47;;;;;;;12.48;100.00;96137.63;5030087;28;101809;-63
2023/05/14 07:30:02;;;;;;;12.50;11.20;;;;;;;12.53;100.00;96134.94;5009348;28;102491;-63
2023/05/14 07:32:30;;;;;;;13.60;11.90;;;;;;;12.45;100.00;96127.47;5015379;28;103017;-64
2023/05/14 07:35:14;;;;;;;13.13;11.73;;;;;;;12.57;100.00;96136.00;5030935;28;101851;-64
2023/05/14 07:37:41;;;;;;;14.03;12.03;;;;;;;12.63;100.00;96134.91;5004739;28;102339;-64
2023/05/14 07:40:09;;;;;;;14.37;12.87;;;;;;;12.69;100.00;96125.84;5003776;28;101914;-64
2023/05/14 07:42:36;;;;;;;12.43;11.13;;;;;;;12.60;100.00;96117.56;5012667;28;105645;-63
2023/05/14 07:45:04;;;;;;;13.17;11.83;;;;;;;12.92;100.00;96126.06;4991761;28;105186;-63
2023/05/14 07:47:33;;;;;;;13.17;11.87;;;;;;;13.10;100.00;96122.03;4993324;28;101736;-63
2023/05/14 07:50:00;;;;;;;12.70;11.40;;;;;;;12.92;100.00;96115.38;4990671;28;102830;-62
2023/05/14 07:52:27;;;;;;;12.23;10.83;;;;;;;12.82;100.00;96114.63;4990109;28;103089;-63
2023/05/14 07:55:08;;;;;;;11.67;10.47;;;;;;;12.89;100.00;96107.13;4990661;28;102287;-63
2023/05/14 07:57:35;;;;;;;11.73;10.53;;;;;;;12.96;100.00;96111.13;5010975;28;105806;-63
2023/05/14 08:00:02;;;;;;;12.73;10.33;;;;;;;13.21;100.00;96116.41;5030440;28;102527;-63
2023/05/14 08:02:41;;;;;;;11.20;10.10;;;;;;;13.49;100.00;96097.03;5027547;28;102146;-63
2023/05/14 08:05:25;;;;;;;12.33;11.03;;;;;;;13.36;100.00;96091.50;5029266;28;103192;-63
2023/05/14 08:07:52;;;;;;;11.63;10.43;;;;;;;13.12;100.00;96095.84;5001600;28;102316;-62
2023/05/14 08:10:19;;;;;;;10.80;9.73;;;;;;;13.27;100.00;96095.81;5003504;28;104577;-62
2023/05/14 08:12:46;;;;;;;10.00;9.00;;;;;;;13.23;100.00;96090.22;5010986;28;105328;-62
2023/05/14 08:15:36;;;;;;;11.60;10.50;;;;;;;13.11;100.00;96095.06;5031463;28;101821;-63
2023/05/14 08:18:05;;;;;;;10.30;9.30;;;;;;;13.26;100.00;96099.56;5027443;28;103150;-61
2023/05/14 08:20:32;;;;;;;10.90;9.80;;;;;;;13.40;100.00;96092.56;4994816;28;105303;-62
2023/05/14 08:22:59;;;;;;;11.63;10.30;;;;;;;13.42;100.00;96091.19;5014445;28;102344;-62
2023/05/14 08:25:25;;;;;;;11.27;10.17;;;;;;;13.35;100.00;96088.03;5029961;28;102600;-62
2023/05/14 08:27:53;;;;;;;12.07;10.73;;;;;;;13.40;100.00;96089.88;5010965;28;101914;-62
2023/05/14 08:30:20;;;;;;;12.07;10.33;;;;;;;13.48;100.00;96097.31;4989441;28;102465;-62
2023/05/14 08:32:47;;;;;;;12.13;10.40;;;;;;;13.37;100.00;96093.09;5017862;28;102697;-62
2023/05/14 08:35:21;;;;;;;11.90;10.70;;;;;;;13.40;100.00;96092.56;5030343;28;101849;-62
2023/05/14 08:37:49;;;;;;;11.10;9.93;;;;;;;13.36;100.00;96086.16;4993943;28;105115;-62
2023/05/14 08:40:16;;;;;;;11.07;9.90;;;;;;;13.36;100.00;96080.81;4990485;28;102586;-62
2023/05/14 08:42:44;;;;;;;10.87;9.77;;;;;;;13.58;100.00;96083.91;4994344;28;101868;-62
2023/05/14 08:45:32;;;;;;;11.07;9.43;;;;;;;13.68;100.00;96089.97;5009213;28;104666;-62
2023/05/14 08:48:01;;;;;;;10.60;9.47;;;;;;;13.77;100.00;96087.50;5031048;28;101759;-62
2023/05/14 08:50:29;;;;;;;10.90;9.50;;;;;;;13.83;100.00;96087.22;5029745;28;102819;-62
2023/05/14 08:52:56;;;;;;;9.97;8.97;;;;;;;13.85;100.00;96089.63;5030020;28;102655;-62
2023/05/14 08:55:24;;;;;;;10.80;9.70;;;;;;;13.77;100.00;96087.50;5029309;28;101978;-62
2023/05/14 08:57:51;;;;;;;11.00;9.83;;;;;;;13.37;100.00;96071.72;5012094;28;105917;-62
2023/05/14 09:00:19;;;;;;;11.70;10.50;;;;;;;13.24;100.00;96075.78;4997735;28;102671;-62
2023/05/14 09:02:46;;;;;;;12.27;11.07;;;;;;;13.08;100.00;96081.47;4988382;28;101904;-62
2023/05/14 09:05:52;;;;;;;11.77;10.57;;;;;;;13.00;100.00;96080.16;4991247;28;103730;-62
2023/05/14 09:08:20;;;;;;;12.20;11.00;;;;;;;12.98;100.00;96076.19;4971736;28;102047;-62
2023/05/14 09:10:46;;;;;;;13.73;11.37;;;;;;;13.20;100.00;96080.06;5019047;28;102471;-62
2023/05/14 09:13:21;;;;;;;11.00;9.90;;;;;;;13.09;100.00;96080.41;5010895;28;105558;-62
2023/05/14 09:15:50;;;;;;;11.20;10.00;;;;;;;13.09;100.00;96081.19;5023395;28;101903;-62
2023/05/14 09:18:17;;;;;;;11.70;10.47;;;;;;;13.17;100.00;96087.81;4989386;28;102453;-62
2023/05/14 09:20:44;;;;;;;11.43;10.33;;;;;;;13.15;100.00;96081.97;5016782;28;102716;-62
2023/05/14 09:23:26;;;;;;;12.27;10.50;;;;;;;13.26;100.00;96075.53;5029447;28;102561;-62
2023/05/14 09:25:53;;;;;;;12.23;10.97;;;;;;;13.30;100.00;96074.69;5005698;28;102309;-62
2023/05/14 09:28:23;;;;;;;12.53;10.77;;;;;;;13.40;100.00;96069.31;5013791;28;102706;-62
2023/05/14 09:30:51;;;;;;;10.83;9.83;;;;;;;13.30;100.00;96076.56;4998908;28;102352;-62
2023/05/14 09:33:27;;;;;;;11.37;10.27;;;;;;;13.45;100.00;96076.47;4989747;28;102996;-62
2023/05/14 09:35:58;;;;;;;11.03;9.93;;;;;;;13.53;100.00;96076.69;4993116;28;102114;-62
2023/05/14 09:38:29;;;;;;;10.40;9.30;;;;;;;13.49;100.00;96075.66;5030578;28;102394;-62
2023/05/14 09:40:57;;;;;;;9.87;8.87;;;;;;;13.48;100.00;96078.59;4998075;28;102231;-62
2023/05/14 09:43:24;;;;;;;11.27;10.07;;;;;;;13.23;100.00;96081.41;4993180;28;101802;-62
2023/05/14 09:45:51;;;;;;;10.50;9.47;;;;;;;13.35;100.00;96082.69;4999467;28;102398;-62
2023/05/14 09:48:18;;;;;;;10.87;9.77;;;;;;;13.45;100.00;96074.63;5032913;28;102606;-62
2023/05/14 09:50:47;;;;;;;10.50;9.33;;;;;;;13.51;100.00;96072.72;5001202;28;101961;-62
2023/05/14 09:53:19;;;;;;;10.27;9.17;;;;;;;13.59;100.00;96064.94;4991441;28;105439;-62
2023/05/14 09:55:48;;;;;;;10.83;9.47;;;;;;;13.76;100.00;96073.38;4997129;28;101743;-62
2023/05/14 09:58:15;;;;;;;10.83;9.73;;;;;;;13.60;100.00;96063.03;5015177;28;103735;-62
2023/05/14 10:00:45;;;;;;;10.47;9.47;;;;;;;13.37;100.00;96066.38;5013024;28;105539;-62
2023/05/14 10:03:18;;;;;;;10.00;9.00;;;;;;;13.40;100.00;96063.19;5033627;28;102136;-62
2023/05/14 10:05:46;;;;;;;12.03;10.73;;;;;;;13.50;100.00;96068.44;5029612;28;102426;-62
2023/05/14 10:08:20;;;;;;;12.80;11.50;;;;;;;13.30;100.00;96063.22;4990511;28;105383;-62
2023/05/14 10:10:50;;;;;;;11.53;10.37;;;;;;;13.41;100.00;96064.78;4991867;28;102033;-62
2023/05/14 10:13:31;;;;;;;12.80;11.50;;;;;;;13.59;100.00;96074.81;5005212;28;104098;-62
2023/05/14 10:16:06;;;;;;;12.33;11.13;;;;;;;13.86;100.00;96075.16;5008107;28;102249;-62
2023/05/14 10:18:38;;;;;;;12.10;10.93;;;;;;;13.95;100.00;96068.16;4990712;28;103932;-62
2023/05/14 10:21:06;;;;;;;12.93;11.63;;;;;;;13.86;100.00;96061.81;4988031;28;103746;-62
2023/05/14 10:23:36;;;;;;;12.43;11.13;;;;;;;13.58;100.00;96067.88;4990643;28;102003;-62
2023/05/14 10:26:05;;;;;;;14.20;11.63;;;;;;;13.49;100.00;96067.66;4994109;28;105158;-62
2023/05/14 10:28:33;;;;;;;13.20;11.80;;;;;;;13.36;100.00;96067.47;5013379;28;105159;-62
2023/05/14 10:31:00;;;;;;;13.50;12.20;;;;;;;13.25;100.00;96072.03;4973835;28;101938;-62
2023/05/14 10:33:27;;;;;;;13.77;12.37;;;;;;;13.07;100.00;96071.84;4973813;28;103510;-62
2023/05/14 10:36:01;;;;;;;14.40;12.93;;;;;;;13.19;100.00;96067.00;5011635;28;102072;-62
2023/05/14 10:38:28;;;;;;;15.17;13.57;;;;;;;13.02;100.00;96077.22;4992693;28;104998;-62
2023/05/14 10:41:04;;;;;;;15.00;13.43;;;;;;;13.01;100.00;96070.28;4973243;28;105365;-62
2023/05/14 10:43:37;;;;;;;15.53;13.93;;;;;;;13.12;100.00;96071.84;4977470;28;101866;-62
2023/05/14 10:46:04;;;;;;;15.07;13.47;;;;;;;13.03;100.00;96070.81;5003260;28;105389;-64
2023/05/14 10:48:33;;;;;;;15.33;13.73;;;;;;;13.22;100.00;96059.25;4992432;28;104929;-61
2023/05/14 10:51:01;;;;;;;15.13;13.53;;;;;;;13.40;100.00;96050.59;4996608;28;102068;-61
2023/05/14 10:53:33;;;;;;;15.90;13.93;;;;;;;13.61;100.00;96052.09;4991867;28;104760;-61
2023/05/14 10:56:05;;;;;;;15.60;13.43;;;;;;;13.97;100.00;96042.75;4995240;28;102869;-61
2023/05/14 10:58:35;;;;;;;14.67;13.17;;;;;;;14.31;100.00;96045.41;4994295;28;102261;-61
2023/05/14 11:01:04;;;;;;;13.60;12.20;;;;;;;14.32;100.00;96044.31;4990617;28;102643;-61
2023/05/14 11:04:21;;;;;;;14.70;13.07;;;;;;;14.30;100.00;96041.94;4991080;28;102091;-61
2023/05/14 11:06:48;;;;;;;14.83;13.33;;;;;;;14.61;100.00;96026.41;5015013;28;103095;-61
2023/05/14 11:09:17;;;;;;;14.67;13.27;;;;;;;14.48;100.00;96021.69;5016705;28;102543;-62
2023/05/14 11:11:46;;;;;;;13.20;11.90;;;;;;;13.89;100.00;96027.28;4989882;28;101993;-62
2023/05/14 11:14:29;;;;;;;12.00;10.80;;;;;;;14.40;100.00;96015.09;4991492;28;102473;-61
2023/05/14 11:16:57;;;;;;;12.87;11.57;;;;;;;14.89;100.00;96012.16;5002450;28;105471;-62